createdAt,value
2018-06-28T00:01:50.481Z,57.40
2018-06-28T00:04:20.670Z,57.50
2018-06-28T00:06:51.484Z,58.10
2018-06-28T00:09:23.148Z,58.30
2018-06-28T00:11:54.647Z,58.50
2018-06-28T00:14:24.854Z,58.30
2018-06-28T00:16:55.220Z,58.20
2018-06-28T00:19:25.677Z,58.30
2018-06-28T00:21:55.913Z,58.40
2018-06-28T00:24:27.137Z,58.70
2018-06-28T00:26:58.154Z,58.90
2018-06-28T00:29:28.338Z,58.90
2018-06-28T00:32:01.092Z,58.80
2018-06-28T00:34:38.666Z,58.90
2018-06-28T00:37:09.226Z,59.00
2018-06-28T00:39:39.842Z,59.00
2018-06-28T00:42:10.101Z,59.10
2018-06-28T00:44:40.302Z,59.20
2018-06-28T00:47:12.758Z,59.40
2018-06-28T00:49:43.200Z,59.40
2018-06-28T00:52:13.460Z,59.80
2018-06-28T00:54:43.743Z,59.80
2018-06-28T00:57:13.975Z,59.80
2018-06-28T00:59:44.180Z,59.90
2018-06-28T01:02:14.455Z,60.00
2018-06-28T01:04:44.695Z,60.00
2018-06-28T01:07:17.255Z,60.00
2018-06-28T01:12:10.475Z,60.30
2018-06-28T01:14:40.726Z,60.60
2018-06-28T01:17:11.056Z,60.50
2018-06-28T01:19:41.852Z,60.60
2018-06-28T01:22:12.126Z,60.70
2018-06-28T01:24:50.757Z,61.00
2018-06-28T01:27:22.238Z,61.20
2018-06-28T01:29:53.043Z,61.20
2018-06-28T01:32:23.431Z,61.00
2018-06-28T01:34:54.990Z,61.20
2018-06-28T01:37:25.215Z,61.10
2018-06-28T01:39:55.734Z,61.10
2018-06-28T01:42:53.730Z,61.10
2018-06-28T01:45:32.369Z,61.20
2018-06-28T01:48:10.904Z,61.30
2018-06-28T01:50:42.571Z,61.60
2018-06-28T01:53:16.046Z,61.60
2018-06-28T01:55:46.743Z,62.00
2018-06-28T01:58:18.179Z,62.40
2018-06-28T02:00:48.480Z,62.70
2018-06-28T02:03:19.043Z,62.70
2018-06-28T02:05:50.705Z,62.30
2018-06-28T02:08:21.419Z,62.10
2018-06-28T02:10:51.669Z,62.10
2018-06-28T02:13:21.968Z,62.50
2018-06-28T02:15:52.178Z,62.60
2018-06-28T02:18:22.585Z,63.00
2018-06-28T02:20:52.840Z,63.40
2018-06-28T02:23:23.130Z,63.60
2018-06-28T02:25:56.224Z,63.80
2018-06-28T02:28:26.786Z,63.80
2018-06-28T02:30:56.987Z,63.80
2018-06-28T02:33:27.462Z,63.50
2018-06-28T02:36:02.223Z,63.30
2018-06-28T02:38:39.567Z,63.90
2018-06-28T02:41:15.404Z,63.70
2018-06-28T02:43:45.759Z,64.20
2018-06-28T02:46:16.021Z,64.50
2018-06-28T02:48:52.220Z,64.40
2018-06-28T02:51:23.033Z,64.70
2018-06-28T02:53:53.307Z,65.60
2018-06-28T02:56:25.248Z,64.90
2018-06-28T02:58:56.048Z,64.80
2018-06-28T03:01:29.291Z,65.00
2018-06-28T03:03:59.577Z,65.20
2018-06-28T03:06:29.872Z,65.90
2018-06-28T03:09:00.272Z,65.10
2018-06-28T03:11:30.500Z,65.50
2018-06-28T03:14:00.736Z,65.30
2018-06-28T03:16:30.961Z,65.40
2018-06-28T03:19:01.219Z,66.10
2018-06-28T03:21:31.651Z,66.60
2018-06-28T03:24:07.242Z,67.50
2018-06-28T03:26:49.135Z,66.90
2018-06-28T03:29:19.455Z,66.70
2018-06-28T03:31:49.768Z,66.20
2018-06-28T03:34:20.041Z,66.10
2018-06-28T03:36:50.266Z,66.50
2018-06-28T03:39:26.718Z,66.60
2018-06-28T03:41:56.931Z,66.60
2018-06-28T03:44:27.882Z,66.80
2018-06-28T03:46:58.139Z,66.50
2018-06-28T03:49:28.390Z,66.30
2018-06-28T03:51:59.631Z,65.80
2018-06-28T03:54:29.979Z,65.70
2018-06-28T03:57:00.356Z,66.00
2018-06-28T03:59:39.127Z,66.00
2018-06-28T04:02:14.132Z,66.50
2018-06-28T04:04:45.271Z,67.10
2018-06-28T04:07:17.143Z,67.20
2018-06-28T04:09:47.697Z,67.10
2018-06-28T04:12:17.928Z,66.90
2018-06-28T04:14:48.178Z,66.80
2018-06-28T04:17:18.406Z,66.90
2018-06-28T04:19:48.655Z,67.60
2018-06-28T04:22:25.051Z,67.70
2018-06-28T04:24:55.322Z,67.20
2018-06-28T04:27:25.729Z,67.60
2018-06-28T04:29:55.971Z,67.80
2018-06-28T04:32:26.322Z,67.80
2018-06-28T04:34:56.835Z,67.50
2018-06-28T04:37:27.383Z,67.90
2018-06-28T04:39:57.624Z,67.90
2018-06-28T04:44:57.884Z,67.40
2018-06-28T04:47:28.169Z,66.80
2018-06-28T04:49:58.660Z,66.30
2018-06-28T04:52:31.856Z,66.20
2018-06-28T04:55:03.231Z,66.30
2018-06-28T04:57:33.687Z,66.40
2018-06-28T05:00:04.003Z,66.30
2018-06-28T05:02:34.337Z,65.90
2018-06-28T05:05:04.603Z,65.40
2018-06-28T05:07:34.835Z,65.00
2018-06-28T05:10:05.192Z,64.70
2018-06-28T05:12:35.722Z,64.60
2018-06-28T05:15:06.020Z,64.20
2018-06-28T05:17:36.962Z,64.00
2018-06-28T05:20:11.081Z,64.00
2018-06-28T05:22:47.762Z,64.80
2018-06-28T05:25:19.709Z,64.20
2018-06-28T05:27:51.347Z,63.40
2018-06-28T05:30:21.701Z,62.50
2018-06-28T05:32:52.048Z,62.10
2018-06-28T05:35:22.335Z,61.20
2018-06-28T05:37:52.740Z,61.00
2018-06-28T05:40:23.180Z,59.70
2018-06-28T05:42:53.411Z,59.20
2018-06-28T05:45:24.845Z,58.40
2018-06-28T05:47:55.102Z,58.20
2018-06-28T05:50:25.828Z,57.70
2018-06-28T05:52:56.085Z,57.40
2018-06-28T05:55:26.392Z,56.30
2018-06-28T05:57:56.696Z,56.00
2018-06-28T06:00:26.995Z,55.50
2018-06-28T06:02:57.341Z,54.70
2018-06-28T06:05:28.011Z,54.20
2018-06-28T06:07:58.751Z,54.10
2018-06-28T06:10:32.311Z,53.80
2018-06-28T06:13:02.595Z,53.40
2018-06-28T06:15:32.879Z,53.30
2018-06-28T06:18:03.194Z,53.50
2018-06-28T06:23:03.532Z,52.90
2018-06-28T06:25:33.856Z,52.60
2018-06-28T06:28:04.223Z,51.50
2018-06-28T06:30:35.022Z,51.50
2018-06-28T06:33:05.580Z,50.50
2018-06-28T06:35:36.000Z,49.30
2018-06-28T06:38:06.503Z,48.70
2018-06-28T06:40:36.707Z,47.70
2018-06-28T06:43:07.050Z,47.70
2018-06-28T06:45:37.304Z,47.30
2018-06-28T06:48:07.584Z,48.10
2018-06-28T06:50:37.984Z,47.30
2018-06-28T06:53:08.118Z,47.10
2018-06-28T06:55:38.357Z,46.60
2018-06-28T06:58:08.633Z,46.30
2018-06-28T07:00:38.858Z,46.40
2018-06-28T07:03:09.099Z,45.60
2018-06-28T07:05:39.451Z,45.10
2018-06-28T07:08:09.687Z,45.00
2018-06-28T07:10:39.907Z,45.50
2018-06-28T07:13:10.204Z,45.60
2018-06-28T07:15:40.685Z,45.80
2018-06-28T07:18:10.993Z,45.20
2018-06-28T07:20:41.203Z,45.40
2018-06-28T07:23:11.491Z,45.40
2018-06-28T07:25:42.153Z,46.10
2018-06-28T07:28:12.447Z,46.10
2018-06-28T07:30:42.756Z,45.70
2018-06-28T07:33:13.155Z,45.50
2018-06-28T07:35:43.390Z,46.40
2018-06-28T07:38:13.726Z,46.60
2018-06-28T07:40:43.998Z,46.40
2018-06-28T07:43:14.334Z,46.10
2018-06-28T07:45:44.580Z,45.90
2018-06-28T07:48:14.855Z,46.30
2018-06-28T07:50:45.146Z,47.00
2018-06-28T07:53:15.450Z,46.50
2018-06-28T07:55:45.766Z,47.40
2018-06-28T07:58:16.032Z,47.20
2018-06-28T08:00:46.255Z,47.60
2018-06-28T08:03:16.593Z,47.10
2018-06-28T08:05:47.148Z,47.20
2018-06-28T08:08:18.547Z,46.70
2018-06-28T08:10:48.811Z,46.90
2018-06-28T08:13:19.175Z,46.40
2018-06-28T08:15:49.394Z,45.50
2018-06-28T08:18:25.414Z,44.90
2018-06-28T08:20:55.953Z,45.60
2018-06-28T08:23:30.870Z,45.30
2018-06-28T08:26:01.355Z,45.30
2018-06-28T08:28:32.061Z,43.90
2018-06-28T08:31:02.570Z,44.10
2018-06-28T08:33:33.088Z,42.80
2018-06-28T08:36:03.403Z,42.20
2018-06-28T08:38:33.679Z,42.80
2018-06-28T08:41:03.950Z,42.60
2018-06-28T08:43:34.362Z,43.30
2018-06-28T08:46:04.741Z,42.30
2018-06-28T08:48:35.000Z,42.50
2018-06-28T08:51:05.239Z,42.80
2018-06-28T08:53:35.504Z,42.90
2018-06-28T08:56:06.280Z,44.10
2018-06-28T08:58:36.592Z,43.50
2018-06-28T09:03:36.871Z,44.50
2018-06-28T09:06:07.119Z,47.40
2018-06-28T09:08:37.548Z,49.30
2018-06-28T09:11:08.023Z,50.50
2018-06-28T09:13:38.362Z,50.60
2018-06-28T09:16:08.619Z,50.80
2018-06-28T09:18:38.883Z,51.90
2018-06-28T09:21:09.094Z,52.50
2018-06-28T09:23:39.340Z,51.40
2018-06-28T09:26:11.125Z,50.70
2018-06-28T09:28:41.431Z,50.60
2018-06-28T09:31:11.682Z,51.20
2018-06-28T09:33:42.204Z,49.80
2018-06-28T09:36:12.634Z,50.80
2018-06-28T09:38:43.005Z,49.50
2018-06-28T09:41:13.226Z,49.50
2018-06-28T09:43:43.758Z,48.70
2018-06-28T09:46:14.386Z,49.20
2018-06-28T09:48:44.673Z,49.10
2018-06-28T09:51:14.872Z,48.80
2018-06-28T09:53:45.107Z,49.00
2018-06-28T09:56:15.358Z,49.90
2018-06-28T09:58:45.589Z,48.30
2018-06-28T10:01:15.790Z,48.10
2018-06-28T10:03:46.067Z,48.50
2018-06-28T10:06:16.464Z,48.10
2018-06-28T10:08:46.722Z,46.80
2018-06-28T10:11:17.641Z,46.20
2018-06-28T10:13:47.923Z,44.80
2018-06-28T10:16:18.227Z,43.30
2018-06-28T10:18:50.968Z,43.40
2018-06-28T10:21:21.816Z,43.70
2018-06-28T10:23:55.244Z,44.40
2018-06-28T10:26:25.697Z,44.00
2018-06-28T10:28:56.026Z,42.50
2018-06-28T10:31:26.427Z,42.80
2018-06-28T10:33:56.948Z,41.80
2018-06-28T10:36:27.182Z,40.70
2018-06-28T10:38:57.730Z,42.30
2018-06-28T10:41:28.277Z,42.70
2018-06-28T10:43:58.590Z,42.50
2018-06-28T10:46:28.887Z,42.60
2018-06-28T10:48:59.478Z,44.60
2018-06-28T10:51:29.827Z,45.20
2018-06-28T10:54:00.812Z,46.60
2018-06-28T10:56:32.663Z,47.00
2018-06-28T10:59:06.614Z,47.40
2018-06-28T11:01:38.552Z,47.60
2018-06-28T11:04:10.947Z,46.70
2018-06-28T11:06:41.879Z,47.30
2018-06-28T11:09:12.753Z,48.10
2018-06-28T11:11:43.114Z,53.30
2018-06-28T11:14:13.482Z,57.30
2018-06-28T11:16:50.200Z,57.50
2018-06-28T11:19:21.211Z,58.50
2018-06-28T11:21:51.701Z,62.30
2018-06-28T11:24:23.864Z,61.80
2018-06-28T11:26:55.226Z,59.20
2018-06-28T11:29:25.865Z,59.10
2018-06-28T11:31:56.371Z,56.70
2018-06-28T11:34:27.838Z,57.50
2018-06-28T11:36:58.425Z,55.40
2018-06-28T11:39:28.972Z,55.70
2018-06-28T11:41:59.259Z,54.50
2018-06-28T11:44:29.759Z,53.50
2018-06-28T11:46:59.975Z,53.50
2018-06-28T11:49:30.439Z,53.00
2018-06-28T11:52:01.514Z,53.20
2018-06-28T11:54:31.986Z,53.40
2018-06-28T11:57:02.268Z,53.50
2018-06-28T11:59:33.065Z,51.70
2018-06-28T12:02:04.076Z,52.30
2018-06-28T12:04:59.314Z,51.10
2018-06-28T12:07:30.707Z,51.60
2018-06-28T12:10:01.747Z,49.80
2018-06-28T12:12:31.986Z,50.20
2018-06-28T12:15:02.282Z,48.80
2018-06-28T12:17:32.850Z,49.00
2018-06-28T12:20:03.639Z,48.50
2018-06-28T12:22:34.339Z,48.10
2018-06-28T12:25:05.680Z,49.90
2018-06-28T12:27:36.008Z,50.00
2018-06-28T12:30:06.853Z,47.90
2018-06-28T12:32:37.431Z,45.50
2018-06-28T12:35:07.774Z,47.10
2018-06-28T12:37:38.031Z,48.50
2018-06-28T12:40:08.459Z,47.60
2018-06-28T12:42:39.419Z,47.40
2018-06-28T12:45:09.962Z,47.50
2018-06-28T12:48:04.726Z,48.30
2018-06-28T12:50:35.138Z,46.50
2018-06-28T12:53:06.588Z,48.90
2018-06-28T12:56:45.467Z,49.40
2018-06-28T12:59:22.754Z,49.10
2018-06-28T13:01:53.450Z,49.70
2018-06-28T13:04:23.728Z,49.80
2018-06-28T13:06:54.019Z,49.70
2018-06-28T13:09:24.267Z,49.50
2018-06-28T13:11:54.557Z,51.70
2018-06-28T13:14:24.831Z,52.00
2018-06-28T13:16:55.110Z,55.30
2018-06-28T13:19:25.369Z,55.20
2018-06-28T13:21:55.852Z,55.70
2018-06-28T13:24:26.190Z,57.30
2018-06-28T13:26:57.602Z,56.40
2018-06-28T13:29:29.230Z,57.70
2018-06-28T13:31:59.688Z,58.80
2018-06-28T13:34:30.293Z,58.60
2018-06-28T13:37:00.515Z,59.30
2018-06-28T13:39:30.850Z,58.20
2018-06-28T13:42:01.144Z,58.80
2018-06-28T13:44:31.857Z,61.00
2018-06-28T13:47:02.077Z,62.60
2018-06-28T13:49:32.462Z,64.00
2018-06-28T13:52:02.678Z,63.80
2018-06-28T13:54:32.938Z,62.50
2018-06-28T13:57:03.287Z,63.20
2018-06-28T13:59:33.883Z,63.00
2018-06-28T14:02:04.790Z,63.80
2018-06-28T14:04:35.354Z,62.80
2018-06-28T14:07:06.161Z,60.30
2018-06-28T14:09:36.445Z,59.00
2018-06-28T14:12:07.164Z,60.50
2018-06-28T14:14:37.656Z,61.60
2018-06-28T14:17:07.894Z,61.30
2018-06-28T14:19:38.211Z,60.70
2018-06-28T14:22:08.485Z,62.30
2018-06-28T14:24:38.716Z,62.90
2018-06-28T14:27:09.018Z,62.30
2018-06-28T14:29:39.293Z,63.20
2018-06-28T14:32:09.606Z,64.60
2018-06-28T14:34:39.883Z,64.20
2018-06-28T14:37:10.276Z,65.40
2018-06-28T14:39:41.026Z,66.50
2018-06-28T14:42:11.286Z,66.20
2018-06-28T14:44:42.504Z,65.90
2018-06-28T14:47:12.901Z,64.60
2018-06-28T14:49:43.183Z,66.00
2018-06-28T14:52:13.914Z,66.00
2018-06-28T14:54:44.671Z,66.30
2018-06-28T14:57:15.083Z,65.40
2018-06-28T14:59:45.351Z,65.40
2018-06-28T15:02:15.699Z,63.50
2018-06-28T15:04:58.539Z,65.50
2018-06-28T15:07:30.012Z,64.80
2018-06-28T15:10:08.017Z,65.30
2018-06-28T15:12:39.253Z,65.20
2018-06-28T15:15:10.870Z,65.80
2018-06-28T15:17:47.468Z,65.70
2018-06-28T15:20:17.671Z,64.30
2018-06-28T15:22:48.083Z,65.30
2018-06-28T15:25:18.426Z,65.20
2018-06-28T15:27:49.492Z,65.90
2018-06-28T15:30:19.762Z,67.10
2018-06-28T15:32:50.271Z,67.40
2018-06-28T15:35:20.530Z,67.50
2018-06-28T15:37:54.943Z,68.10
2018-06-28T15:40:26.306Z,68.50
2018-06-28T15:42:56.895Z,69.50
2018-06-28T15:45:27.395Z,68.50
2018-06-28T15:47:58.680Z,69.10
2018-06-28T15:50:28.950Z,68.30
2018-06-28T15:53:00.540Z,68.80
2018-06-28T15:55:31.394Z,69.20
2018-06-28T15:58:01.649Z,69.00
2018-06-28T16:00:35.848Z,68.30
2018-06-28T16:03:08.307Z,68.30
2018-06-28T16:05:38.999Z,68.80
2018-06-28T16:08:10.179Z,68.70
2018-06-28T16:10:41.141Z,69.60
2018-06-28T16:13:11.399Z,70.30
2018-06-28T16:15:45.408Z,69.80
2018-06-28T16:18:16.392Z,68.90
2018-06-28T16:20:46.816Z,69.80
2018-06-28T16:23:24.108Z,70.10
2018-06-28T16:25:54.551Z,70.00
2018-06-28T16:28:25.908Z,70.30
2018-06-28T16:30:57.429Z,72.40
2018-06-28T16:33:27.947Z,72.00
2018-06-28T16:35:58.170Z,72.80
2018-06-28T16:38:29.004Z,72.70
2018-06-28T16:41:00.533Z,72.30
2018-06-28T16:43:31.312Z,72.40
2018-06-28T16:46:01.877Z,73.10
2018-06-28T16:48:32.424Z,72.70
2018-06-28T16:51:03.649Z,72.30
2018-06-28T16:53:33.999Z,72.70
2018-06-28T16:56:06.933Z,72.30
2018-06-28T16:58:37.357Z,73.40
2018-06-28T17:01:09.078Z,72.70
2018-06-28T17:03:39.774Z,72.80
2018-06-28T17:06:10.532Z,72.30
2018-06-28T17:08:41.832Z,72.30
2018-06-28T17:11:12.921Z,73.50
2018-06-28T17:13:43.466Z,73.60
2018-06-28T17:16:15.375Z,73.50
2018-06-28T17:18:45.879Z,74.00
2018-06-28T17:21:16.972Z,74.30
2018-06-28T17:23:48.056Z,74.10
2018-06-28T17:26:19.353Z,74.00
2018-06-28T17:28:51.779Z,74.90
2018-06-28T17:31:26.055Z,75.00
2018-06-28T17:33:57.503Z,74.00
2018-06-28T17:36:28.415Z,73.60
2018-06-28T17:39:00.253Z,74.00
2018-06-28T17:41:32.848Z,74.00
2018-06-28T17:44:12.171Z,73.70
2018-06-28T17:46:43.046Z,74.00
2018-06-28T17:49:13.366Z,74.50
2018-06-28T17:51:43.996Z,74.70
2018-06-28T17:54:14.488Z,75.10
2018-06-28T17:56:45.231Z,75.00
2018-06-28T17:59:15.608Z,75.30
2018-06-28T18:01:46.088Z,75.60
2018-06-28T18:04:16.429Z,75.40
2018-06-28T18:06:46.966Z,74.90
2018-06-28T18:09:17.340Z,75.50
2018-06-28T18:11:47.801Z,75.70
2018-06-28T18:14:18.252Z,74.70
2018-06-28T18:16:48.594Z,74.80
2018-06-28T18:19:18.826Z,75.10
2018-06-28T18:21:49.155Z,75.60
2018-06-28T18:24:19.481Z,74.90
2018-06-28T18:26:49.849Z,75.00
2018-06-28T18:29:20.146Z,75.00
2018-06-28T18:31:50.640Z,75.50
2018-06-28T18:34:20.993Z,74.90
2018-06-28T18:36:51.220Z,75.40
2018-06-28T18:39:21.431Z,75.30
2018-06-28T18:41:51.683Z,75.70
2018-06-28T18:44:21.876Z,75.80
2018-06-28T18:46:52.517Z,75.40
2018-06-28T18:49:22.734Z,75.10
2018-06-28T18:51:52.969Z,74.60
2018-06-28T18:54:23.228Z,75.30
2018-06-28T18:56:53.551Z,75.00
2018-06-28T18:59:23.835Z,74.10
2018-06-28T19:01:54.464Z,74.00
2018-06-28T19:04:25.020Z,74.50
2018-06-28T19:06:56.125Z,73.00
2018-06-28T19:09:32.078Z,73.40
2018-06-28T19:12:02.546Z,74.30
2018-06-28T19:14:38.315Z,73.10
2018-06-28T19:17:08.626Z,74.00
2018-06-28T19:19:39.029Z,73.50
2018-06-28T19:22:16.006Z,73.40
2018-06-28T19:24:47.009Z,73.70
2018-06-28T19:27:17.306Z,73.80
2018-06-28T19:29:54.026Z,73.90
2018-06-28T19:32:30.452Z,74.00
2018-06-28T19:35:02.281Z,74.40
2018-06-28T19:37:37.828Z,74.90
2018-06-28T19:40:14.311Z,74.30
2018-06-28T19:42:54.263Z,74.30
2018-06-28T19:45:26.995Z,74.50
2018-06-28T19:48:00.427Z,74.90
2018-06-28T19:50:35.951Z,75.10
2018-06-28T19:53:08.327Z,74.90
2018-06-28T19:55:39.510Z,75.20
2018-06-28T19:58:09.882Z,76.00
2018-06-28T20:00:45.307Z,75.90
2018-06-28T20:03:20.648Z,75.70
2018-06-28T20:05:52.066Z,75.80
2018-06-28T20:08:23.899Z,76.20
2018-06-28T20:10:56.164Z,75.40
2018-06-28T20:13:31.983Z,76.20
2018-06-28T20:16:07.612Z,76.30
2018-06-28T20:18:43.222Z,76.70
2018-06-28T20:21:13.558Z,76.30
2018-06-28T20:23:44.157Z,76.50
2018-06-28T20:26:20.265Z,76.10
2018-06-28T20:28:55.978Z,76.10
2018-06-28T20:31:32.173Z,76.20
2018-06-28T20:34:09.849Z,76.30
2018-06-28T20:36:41.596Z,76.10
2018-06-28T20:39:12.681Z,76.10
2018-06-28T20:41:43.874Z,76.10
2018-06-28T20:44:14.728Z,76.00
2018-06-28T20:46:45.360Z,75.60
2018-06-28T20:49:16.548Z,75.20
2018-06-28T20:51:47.660Z,75.40
2018-06-28T20:54:18.133Z,75.40
2018-06-28T20:56:48.415Z,75.10
2018-06-28T20:59:19.418Z,74.90
2018-06-28T21:01:50.580Z,75.00
2018-06-28T21:04:21.017Z,75.20
2018-06-28T21:06:51.949Z,75.00
2018-06-28T21:09:23.064Z,74.70
2018-06-28T21:11:54.654Z,74.50
2018-06-28T21:14:25.620Z,74.40
2018-06-28T21:16:57.085Z,74.20
2018-06-28T21:19:27.890Z,73.90
2018-06-28T21:21:59.787Z,73.90
2018-06-28T21:24:32.592Z,73.90
2018-06-28T21:27:05.107Z,74.10
2018-06-28T21:29:37.631Z,74.40
2018-06-28T21:32:11.458Z,74.40
2018-06-28T21:34:50.190Z,74.40
2018-06-28T21:37:22.013Z,74.10
2018-06-28T21:39:53.454Z,74.60
2018-06-28T21:42:24.866Z,73.90
2018-06-28T21:44:56.029Z,73.50
2018-06-28T21:47:28.049Z,73.50
2018-06-28T21:50:00.434Z,73.40
2018-06-28T21:52:31.784Z,73.40
2018-06-28T21:55:02.916Z,74.10
2018-06-28T21:57:36.679Z,74.10
2018-06-28T22:00:10.147Z,73.90
2018-06-28T22:02:41.063Z,73.70
2018-06-28T22:05:11.957Z,73.60
2018-06-28T22:07:43.891Z,73.90
2018-06-28T22:10:15.379Z,74.00
2018-06-28T22:12:46.456Z,73.90
2018-06-28T22:15:25.876Z,73.80
2018-06-28T22:17:58.884Z,73.90
2018-06-28T22:20:31.395Z,73.90
2018-06-28T22:23:03.077Z,74.00
2018-06-28T22:25:34.099Z,73.80
2018-06-28T22:28:05.038Z,73.60
2018-06-28T22:30:36.472Z,73.70
2018-06-28T22:33:07.438Z,73.80
2018-06-28T22:35:38.831Z,74.00
2018-06-28T22:38:10.332Z,74.80
2018-06-28T22:40:41.823Z,75.10
2018-06-28T22:43:12.121Z,75.60
2018-06-28T22:45:42.535Z,75.80
2018-06-28T22:48:12.766Z,75.70
2018-06-28T22:50:43.037Z,75.60
2018-06-28T22:53:13.267Z,75.80
2018-06-28T22:55:43.687Z,75.70
2018-06-28T22:58:13.919Z,75.60
2018-06-28T23:00:44.270Z,75.70
2018-06-28T23:03:14.520Z,75.60
2018-06-28T23:05:44.759Z,75.80
2018-06-28T23:08:15.034Z,75.60
2018-06-28T23:10:45.236Z,75.70
2018-06-28T23:13:15.470Z,75.80
2018-06-28T23:15:46.070Z,75.80
2018-06-28T23:18:16.555Z,75.50
2018-06-28T23:20:46.795Z,75.30
2018-06-28T23:23:17.021Z,75.50
2018-06-28T23:25:47.229Z,75.20
2018-06-28T23:28:17.458Z,75.20
2018-06-28T23:30:47.667Z,75.30
2018-06-28T23:33:17.928Z,75.40
2018-06-28T23:35:48.115Z,75.70
2018-06-28T23:38:18.350Z,75.80
2018-06-28T23:40:48.539Z,75.80
2018-06-28T23:43:18.957Z,75.90
2018-06-28T23:45:49.057Z,75.90
2018-06-28T23:48:19.306Z,76.00
2018-06-28T23:50:49.627Z,75.90
2018-06-28T23:53:19.854Z,75.80
2018-06-28T23:55:50.232Z,75.50
2018-06-28T23:58:20.590Z,75.20
